North Pekin, Illinois
Current Conditions -  °F | °C
As of 9:06 AM on Monday 24 Nov 2014 (Local Time) from KPIA Reporting Station
Light Snow Light Snow  
Wind Chill: 23°   Ceiling: 1600
Heat Index: 34°   Visibility: 2.5mi
Dew Point: 29°   Wind: 20mph
Humidity: 82%   Direction: 270°W
Pressure: 29.42"   Gusts: 33mph
Location:  40.5452°N, 89.6011°W
Report Text: KPIA 241506Z 27017G29KT 2 1/2SM -SN SCT010 OVC016 01/M02 A2942 RMK AO2 PK WND 27029/1504 UPB01E03SNE01B03 P0000 T00111017
Loading
Personal Weather Stations






























Interactive Weather Map New forecast layout! Learn more

10-Day Weather Forecast

Advertisements
Track Severe Weather on mobile